sensor_id;sensor_type;location;lat;lon;timestamp;temperature;humidity
42099;DHT22;27758;55.900;8.516;2023-02-25T00:01:48;3.20;99.90
42099;DHT22;27758;55.900;8.516;2023-02-25T00:04:15;3.20;99.90
42099;DHT22;27758;55.900;8.516;2023-02-25T00:06:40;3.20;99.90
42099;DHT22;27758;55.900;8.516;2023-02-25T00:09:06;3.20;99.90
42099;DHT22;27758;55.900;8.516;2023-02-25T00:11:36;3.20;99.90
42099;DHT22;27758;55.900;8.516;2023-02-25T00:14:02;3.20;99.90
42099;DHT22;27758;55.900;8.516;2023-02-25T00:16:28;3.20;99.90
42099;DHT22;27758;55.900;8.516;2023-02-25T00:18:55;3.20;99.90
42099;DHT22;27758;55.900;8.516;2023-02-25T00:21:21;3.10;99.90
42099;DHT22;27758;55.900;8.516;2023-02-25T00:23:48;3.20;99.90
42099;DHT22;27758;55.900;8.516;2023-02-25T00:26:16;3.10;99.90
42099;DHT22;27758;55.900;8.516;2023-02-25T00:28:42;3.10;99.90
42099;DHT22;27758;55.900;8.516;2023-02-25T00:31:10;3.20;99.90
42099;DHT22;27758;55.900;8.516;2023-02-25T00:33:36;3.20;99.90
42099;DHT22;27758;55.900;8.516;2023-02-25T00:36:07;3.20;99.90
42099;DHT22;27758;55.900;8.516;2023-02-25T00:38:33;3.30;99.90
42099;DHT22;27758;55.900;8.516;2023-02-25T00:41:07;3.30;99.90
42099;DHT22;27758;55.900;8.516;2023-02-25T00:43:40;3.30;99.90
42099;DHT22;27758;55.900;8.516;2023-02-25T00:46:07;3.30;99.90
42099;DHT22;27758;55.900;8.516;2023-02-25T00:48:35;3.30;99.90
42099;DHT22;27758;55.900;8.516;2023-02-25T00:51:05;3.30;99.90
42099;DHT22;27758;55.900;8.516;2023-02-25T00:53:31;3.30;99.90
42099;DHT22;27758;55.900;8.516;2023-02-25T00:55:58;3.30;99.90
42099;DHT22;27758;55.900;8.516;2023-02-25T00:58:24;3.20;99.90
42099;DHT22;27758;55.900;8.516;2023-02-25T01:00:50;3.20;99.90
42099;DHT22;27758;55.900;8.516;2023-02-25T01:03:15;3.20;99.90
42099;DHT22;27758;55.900;8.516;2023-02-25T01:05:41;3.20;99.90
42099;DHT22;27758;55.900;8.516;2023-02-25T01:08:07;3.10;99.90
42099;DHT22;27758;55.900;8.516;2023-02-25T01:10:32;3.10;99.90
42099;DHT22;27758;55.900;8.516;2023-02-25T01:12:58;3.10;99.90
42099;DHT22;27758;55.900;8.516;2023-02-25T01:15:24;3.10;99.90
42099;DHT22;27758;55.900;8.516;2023-02-25T01:17:49;3.10;99.90
42099;DHT22;27758;55.900;8.516;2023-02-25T01:20:15;3.00;99.90
42099;DHT22;27758;55.900;8.516;2023-02-25T01:22:44;3.00;99.90
42099;DHT22;27758;55.900;8.516;2023-02-25T01:25:12;3.00;99.90
42099;DHT22;27758;55.900;8.516;2023-02-25T01:27:40;3.00;99.90
42099;DHT22;27758;55.900;8.516;2023-02-25T01:30:07;3.00;99.90
42099;DHT22;27758;55.900;8.516;2023-02-25T01:32:33;3.00;99.90
42099;DHT22;27758;55.900;8.516;2023-02-25T01:34:59;3.00;99.90
42099;DHT22;27758;55.900;8.516;2023-02-25T01:37:25;3.10;99.90
42099;DHT22;27758;55.900;8.516;2023-02-25T01:39:50;3.10;99.90
42099;DHT22;27758;55.900;8.516;2023-02-25T01:42:16;3.10;99.90
42099;DHT22;27758;55.900;8.516;2023-02-25T01:47:53;3.10;99.90
42099;DHT22;27758;55.900;8.516;2023-02-25T01:50:23;3.20;99.90
42099;DHT22;27758;55.900;8.516;2023-02-25T01:52:50;3.30;99.90
42099;DHT22;27758;55.900;8.516;2023-02-25T01:55:17;3.30;99.90
42099;DHT22;27758;55.900;8.516;2023-02-25T01:57:45;3.30;99.90
42099;DHT22;27758;55.900;8.516;2023-02-25T02:00:31;3.30;99.90
42099;DHT22;27758;55.900;8.516;2023-02-25T02:03:17;3.30;99.90
42099;DHT22;27758;55.900;8.516;2023-02-25T02:06:15;3.30;99.90
42099;DHT22;27758;55.900;8.516;2023-02-25T02:09:04;3.30;99.90
42099;DHT22;27758;55.900;8.516;2023-02-25T02:11:48;3.30;99.90
42099;DHT22;27758;55.900;8.516;2023-02-25T02:14:33;3.30;99.90
42099;DHT22;27758;55.900;8.516;2023-02-25T02:17:34;3.30;99.90
42099;DHT22;27758;55.900;8.516;2023-02-25T02:25:59;3.20;99.90
42099;DHT22;27758;55.900;8.516;2023-02-25T02:32:00;3.20;99.90
42099;DHT22;27758;55.900;8.516;2023-02-25T02:34:50;3.20;99.90
42099;DHT22;27758;55.900;8.516;2023-02-25T02:37:26;3.30;99.90
42099;DHT22;27758;55.900;8.516;2023-02-25T02:45:48;3.20;99.90
42099;DHT22;27758;55.900;8.516;2023-02-25T02:48:33;3.20;99.90
42099;DHT22;27758;55.900;8.516;2023-02-25T02:51:03;3.20;99.90
42099;DHT22;27758;55.900;8.516;2023-02-25T02:53:36;3.20;99.90
42099;DHT22;27758;55.900;8.516;2023-02-25T02:56:05;3.30;99.90
42099;DHT22;27758;55.900;8.516;2023-02-25T02:58:37;3.20;99.90
42099;DHT22;27758;55.900;8.516;2023-02-25T03:01:11;3.30;99.90
42099;DHT22;27758;55.900;8.516;2023-02-25T03:03:42;3.20;99.90
42099;DHT22;27758;55.900;8.516;2023-02-25T03:06:18;3.30;99.90
42099;DHT22;27758;55.900;8.516;2023-02-25T03:11:40;3.30;99.90
42099;DHT22;27758;55.900;8.516;2023-02-25T03:14:06;3.30;99.90
42099;DHT22;27758;55.900;8.516;2023-02-25T03:17:00;3.20;99.90
42099;DHT22;27758;55.900;8.516;2023-02-25T03:19:41;3.30;99.90
42099;DHT22;27758;55.900;8.516;2023-02-25T03:22:14;3.30;99.90
42099;DHT22;27758;55.900;8.516;2023-02-25T03:24:47;3.20;99.90
42099;DHT22;27758;55.900;8.516;2023-02-25T03:27:36;3.20;99.90
42099;DHT22;27758;55.900;8.516;2023-02-25T03:32:39;3.20;99.90
42099;DHT22;27758;55.900;8.516;2023-02-25T03:35:08;3.20;99.90
42099;DHT22;27758;55.900;8.516;2023-02-25T03:37:36;3.20;99.90
42099;DHT22;27758;55.900;8.516;2023-02-25T03:40:07;3.20;99.90
42099;DHT22;27758;55.900;8.516;2023-02-25T03:42:40;3.20;99.90
42099;DHT22;27758;55.900;8.516;2023-02-25T03:45:10;3.20;99.90
42099;DHT22;27758;55.900;8.516;2023-02-25T03:47:37;3.10;99.90
42099;DHT22;27758;55.900;8.516;2023-02-25T03:52:33;3.10;99.90
42099;DHT22;27758;55.900;8.516;2023-02-25T03:54:59;3.10;99.90
42099;DHT22;27758;55.900;8.516;2023-02-25T03:57:34;3.00;99.90
42099;DHT22;27758;55.900;8.516;2023-02-25T04:00:01;3.00;99.90
42099;DHT22;27758;55.900;8.516;2023-02-25T04:02:32;3.00;99.90
42099;DHT22;27758;55.900;8.516;2023-02-25T04:04:58;3.00;99.90
42099;DHT22;27758;55.900;8.516;2023-02-25T04:07:23;2.90;99.90
42099;DHT22;27758;55.900;8.516;2023-02-25T04:09:49;2.80;99.90
42099;DHT22;27758;55.900;8.516;2023-02-25T04:12:15;2.80;99.90
42099;DHT22;27758;55.900;8.516;2023-02-25T04:14:40;2.70;99.90
42099;DHT22;27758;55.900;8.516;2023-02-25T04:17:06;2.80;99.90
42099;DHT22;27758;55.900;8.516;2023-02-25T04:19:32;2.70;99.90
42099;DHT22;27758;55.900;8.516;2023-02-25T04:21:58;2.60;99.90
42099;DHT22;27758;55.900;8.516;2023-02-25T04:24:25;2.60;99.90
42099;DHT22;27758;55.900;8.516;2023-02-25T04:26:51;2.60;99.90
42099;DHT22;27758;55.900;8.516;2023-02-25T04:29:23;2.60;99.90
42099;DHT22;27758;55.900;8.516;2023-02-25T04:31:50;2.50;99.90
42099;DHT22;27758;55.900;8.516;2023-02-25T04:34:16;2.30;99.90
42099;DHT22;27758;55.900;8.516;2023-02-25T04:36:41;2.40;99.90
42099;DHT22;27758;55.900;8.516;2023-02-25T04:39:09;2.40;99.90
42099;DHT22;27758;55.900;8.516;2023-02-25T04:41:36;2.40;99.90
42099;DHT22;27758;55.900;8.516;2023-02-25T04:44:03;2.30;99.90
42099;DHT22;27758;55.900;8.516;2023-02-25T04:46:31;2.30;99.90
42099;DHT22;27758;55.900;8.516;2023-02-25T04:48:57;2.30;99.90
42099;DHT22;27758;55.900;8.516;2023-02-25T04:51:23;2.30;99.90
42099;DHT22;27758;55.900;8.516;2023-02-25T04:53:48;2.20;99.90
42099;DHT22;27758;55.900;8.516;2023-02-25T04:56:14;2.20;99.90
42099;DHT22;27758;55.900;8.516;2023-02-25T04:58:40;2.10;99.90
42099;DHT22;27758;55.900;8.516;2023-02-25T05:01:07;2.10;99.90
42099;DHT22;27758;55.900;8.516;2023-02-25T05:03:34;2.00;99.90
42099;DHT22;27758;55.900;8.516;2023-02-25T05:06:00;2.00;99.90
42099;DHT22;27758;55.900;8.516;2023-02-25T05:08:26;2.00;99.90
42099;DHT22;27758;55.900;8.516;2023-02-25T05:10:52;2.00;99.90
42099;DHT22;27758;55.900;8.516;2023-02-25T05:13:18;1.90;99.90
42099;DHT22;27758;55.900;8.516;2023-02-25T05:15:44;1.90;99.90
42099;DHT22;27758;55.900;8.516;2023-02-25T05:18:10;2.00;99.90
42099;DHT22;27758;55.900;8.516;2023-02-25T05:20:40;1.90;99.90
42099;DHT22;27758;55.900;8.516;2023-02-25T05:23:06;1.90;99.90
42099;DHT22;27758;55.900;8.516;2023-02-25T05:25:32;1.90;99.90
42099;DHT22;27758;55.900;8.516;2023-02-25T05:27:58;1.80;99.90
42099;DHT22;27758;55.900;8.516;2023-02-25T05:30:24;1.80;99.90
42099;DHT22;27758;55.900;8.516;2023-02-25T05:32:50;1.80;99.90
42099;DHT22;27758;55.900;8.516;2023-02-25T05:35:16;1.70;99.90
42099;DHT22;27758;55.900;8.516;2023-02-25T05:37:42;1.70;99.90
42099;DHT22;27758;55.900;8.516;2023-02-25T05:40:08;1.80;99.90
42099;DHT22;27758;55.900;8.516;2023-02-25T05:42:34;1.70;99.90
42099;DHT22;27758;55.900;8.516;2023-02-25T05:45:02;1.70;99.90
42099;DHT22;27758;55.900;8.516;2023-02-25T05:47:27;1.60;99.90
42099;DHT22;27758;55.900;8.516;2023-02-25T05:49:53;1.60;99.90
42099;DHT22;27758;55.900;8.516;2023-02-25T05:52:19;1.50;99.90
42099;DHT22;27758;55.900;8.516;2023-02-25T05:54:44;1.50;99.90
42099;DHT22;27758;55.900;8.516;2023-02-25T05:57:10;1.60;99.90
42099;DHT22;27758;55.900;8.516;2023-02-25T05:59:36;1.50;99.90
42099;DHT22;27758;55.900;8.516;2023-02-25T06:02:02;1.50;99.90
42099;DHT22;27758;55.900;8.516;2023-02-25T06:04:28;1.50;99.90
42099;DHT22;27758;55.900;8.516;2023-02-25T06:06:54;1.50;99.90
42099;DHT22;27758;55.900;8.516;2023-02-25T06:09:20;1.60;99.90
42099;DHT22;27758;55.900;8.516;2023-02-25T06:11:47;1.50;99.90
42099;DHT22;27758;55.900;8.516;2023-02-25T06:14:14;1.50;99.90
42099;DHT22;27758;55.900;8.516;2023-02-25T06:16:40;1.40;99.90
42099;DHT22;27758;55.900;8.516;2023-02-25T06:19:06;1.40;99.90
42099;DHT22;27758;55.900;8.516;2023-02-25T06:21:34;1.30;99.90
42099;DHT22;27758;55.900;8.516;2023-02-25T06:24:01;1.40;99.90
42099;DHT22;27758;55.900;8.516;2023-02-25T06:26:27;1.40;99.90
42099;DHT22;27758;55.900;8.516;2023-02-25T06:28:53;1.40;99.90
42099;DHT22;27758;55.900;8.516;2023-02-25T06:31:20;1.40;99.90
42099;DHT22;27758;55.900;8.516;2023-02-25T06:33:47;1.40;99.90
42099;DHT22;27758;55.900;8.516;2023-02-25T06:36:15;1.40;99.90
42099;DHT22;27758;55.900;8.516;2023-02-25T06:38:42;1.40;99.90
42099;DHT22;27758;55.900;8.516;2023-02-25T06:41:13;1.40;99.90
42099;DHT22;27758;55.900;8.516;2023-02-25T06:43:40;1.40;99.90
42099;DHT22;27758;55.900;8.516;2023-02-25T06:46:08;1.40;99.90
42099;DHT22;27758;55.900;8.516;2023-02-25T06:48:34;1.50;99.90
42099;DHT22;27758;55.900;8.516;2023-02-25T06:51:00;1.50;99.90
42099;DHT22;27758;55.900;8.516;2023-02-25T06:53:26;1.50;99.90
42099;DHT22;27758;55.900;8.516;2023-02-25T06:55:52;1.50;99.90
42099;DHT22;27758;55.900;8.516;2023-02-25T06:58:17;1.50;99.90
42099;DHT22;27758;55.900;8.516;2023-02-25T07:00:43;1.60;99.90
42099;DHT22;27758;55.900;8.516;2023-02-25T07:03:12;1.60;99.90
42099;DHT22;27758;55.900;8.516;2023-02-25T07:05:39;1.60;99.90
42099;DHT22;27758;55.900;8.516;2023-02-25T07:08:04;1.60;99.90
42099;DHT22;27758;55.900;8.516;2023-02-25T07:10:30;1.60;99.90
42099;DHT22;27758;55.900;8.516;2023-02-25T07:12:56;1.70;99.90
42099;DHT22;27758;55.900;8.516;2023-02-25T07:15:22;1.70;99.90
42099;DHT22;27758;55.900;8.516;2023-02-25T07:17:48;1.70;99.90
42099;DHT22;27758;55.900;8.516;2023-02-25T07:20:14;1.70;99.90
42099;DHT22;27758;55.900;8.516;2023-02-25T07:22:39;2.10;99.90
42099;DHT22;27758;55.900;8.516;2023-02-25T07:25:10;2.70;99.90
42099;DHT22;27758;55.900;8.516;2023-02-25T07:27:41;3.20;99.90
42099;DHT22;27758;55.900;8.516;2023-02-25T07:30:08;3.60;99.90
42099;DHT22;27758;55.900;8.516;2023-02-25T07:32:34;3.90;99.90
42099;DHT22;27758;55.900;8.516;2023-02-25T07:35:00;4.00;99.90
42099;DHT22;27758;55.900;8.516;2023-02-25T07:37:26;4.20;99.90
42099;DHT22;27758;55.900;8.516;2023-02-25T07:39:52;4.30;99.90
42099;DHT22;27758;55.900;8.516;2023-02-25T07:42:18;4.60;99.90
42099;DHT22;27758;55.900;8.516;2023-02-25T07:44:43;4.90;99.90
42099;DHT22;27758;55.900;8.516;2023-02-25T07:47:09;5.00;99.90
42099;DHT22;27758;55.900;8.516;2023-02-25T07:49:35;5.10;99.90
42099;DHT22;27758;55.900;8.516;2023-02-25T07:52:00;5.00;99.90
42099;DHT22;27758;55.900;8.516;2023-02-25T07:54:26;5.10;99.90
42099;DHT22;27758;55.900;8.516;2023-02-25T07:56:52;5.30;99.90
42099;DHT22;27758;55.900;8.516;2023-02-25T07:59:18;5.30;99.90
42099;DHT22;27758;55.900;8.516;2023-02-25T08:01:44;5.40;99.90
42099;DHT22;27758;55.900;8.516;2023-02-25T08:04:09;5.50;99.90
42099;DHT22;27758;55.900;8.516;2023-02-25T08:06:38;5.60;99.90
42099;DHT22;27758;55.900;8.516;2023-02-25T08:09:08;5.70;99.90
42099;DHT22;27758;55.900;8.516;2023-02-25T08:11:38;5.50;99.90
42099;DHT22;27758;55.900;8.516;2023-02-25T08:14:04;5.60;99.90
42099;DHT22;27758;55.900;8.516;2023-02-25T08:16:31;5.80;99.90
42099;DHT22;27758;55.900;8.516;2023-02-25T08:18:57;5.90;99.90
42099;DHT22;27758;55.900;8.516;2023-02-25T08:21:24;5.90;99.90
42099;DHT22;27758;55.900;8.516;2023-02-25T08:23:51;6.10;99.90
42099;DHT22;27758;55.900;8.516;2023-02-25T08:26:17;6.20;99.90
42099;DHT22;27758;55.900;8.516;2023-02-25T08:28:44;6.30;99.90
42099;DHT22;27758;55.900;8.516;2023-02-25T08:31:10;6.20;99.90
42099;DHT22;27758;55.900;8.516;2023-02-25T08:33:38;6.30;99.90
42099;DHT22;27758;55.900;8.516;2023-02-25T08:36:10;6.50;99.90
42099;DHT22;27758;55.900;8.516;2023-02-25T08:38:36;6.60;99.90
42099;DHT22;27758;55.900;8.516;2023-02-25T08:41:03;6.80;99.90
42099;DHT22;27758;55.900;8.516;2023-02-25T08:43:29;7.00;99.90
42099;DHT22;27758;55.900;8.516;2023-02-25T08:45:56;7.00;99.90
42099;DHT22;27758;55.900;8.516;2023-02-25T08:48:22;6.80;99.90
42099;DHT22;27758;55.900;8.516;2023-02-25T08:50:47;7.00;99.90
42099;DHT22;27758;55.900;8.516;2023-02-25T08:53:13;7.00;99.90
42099;DHT22;27758;55.900;8.516;2023-02-25T08:55:39;7.10;99.90
42099;DHT22;27758;55.900;8.516;2023-02-25T08:58:06;7.30;99.90
42099;DHT22;27758;55.900;8.516;2023-02-25T09:00:32;7.10;99.90
42099;DHT22;27758;55.900;8.516;2023-02-25T09:02:57;7.30;99.90
42099;DHT22;27758;55.900;8.516;2023-02-25T09:05:24;7.50;99.90
42099;DHT22;27758;55.900;8.516;2023-02-25T09:07:50;7.40;99.90
42099;DHT22;27758;55.900;8.516;2023-02-25T09:10:17;7.50;99.90
42099;DHT22;27758;55.900;8.516;2023-02-25T09:12:43;7.60;99.90
42099;DHT22;27758;55.900;8.516;2023-02-25T09:15:10;7.70;99.90
42099;DHT22;27758;55.900;8.516;2023-02-25T09:17:37;7.90;99.90
42099;DHT22;27758;55.900;8.516;2023-02-25T09:20:04;7.80;99.90
42099;DHT22;27758;55.900;8.516;2023-02-25T09:22:33;7.90;99.90
42099;DHT22;27758;55.900;8.516;2023-02-25T09:24:59;7.90;99.90
42099;DHT22;27758;55.900;8.516;2023-02-25T09:27:25;7.90;99.90
42099;DHT22;27758;55.900;8.516;2023-02-25T09:29:51;8.30;99.90
42099;DHT22;27758;55.900;8.516;2023-02-25T09:32:19;8.50;99.90
42099;DHT22;27758;55.900;8.516;2023-02-25T09:34:46;8.40;99.90
42099;DHT22;27758;55.900;8.516;2023-02-25T09:37:14;8.50;99.90
42099;DHT22;27758;55.900;8.516;2023-02-25T09:39:40;8.50;99.90
42099;DHT22;27758;55.900;8.516;2023-02-25T09:42:22;8.30;99.90
42099;DHT22;27758;55.900;8.516;2023-02-25T09:44:51;8.50;99.90
42099;DHT22;27758;55.900;8.516;2023-02-25T09:47:19;8.50;99.90
42099;DHT22;27758;55.900;8.516;2023-02-25T09:49:58;8.40;99.90
42099;DHT22;27758;55.900;8.516;2023-02-25T09:52:39;8.10;99.90
42099;DHT22;27758;55.900;8.516;2023-02-25T09:55:22;8.00;99.90
42099;DHT22;27758;55.900;8.516;2023-02-25T09:58:07;8.10;99.90
42099;DHT22;27758;55.900;8.516;2023-02-25T10:00:47;8.60;99.90
42099;DHT22;27758;55.900;8.516;2023-02-25T10:03:38;9.10;99.90
42099;DHT22;27758;55.900;8.516;2023-02-25T10:08:56;9.10;99.90
42099;DHT22;27758;55.900;8.516;2023-02-25T10:20:17;9.90;99.90
42099;DHT22;27758;55.900;8.516;2023-02-25T10:25:57;9.60;99.80
42099;DHT22;27758;55.900;8.516;2023-02-25T10:28:25;9.40;99.90
42099;DHT22;27758;55.900;8.516;2023-02-25T10:31:05;9.60;99.90
42099;DHT22;27758;55.900;8.516;2023-02-25T10:33:33;9.50;99.90
42099;DHT22;27758;55.900;8.516;2023-02-25T10:38:37;9.60;99.90
42099;DHT22;27758;55.900;8.516;2023-02-25T10:41:04;9.60;99.90
42099;DHT22;27758;55.900;8.516;2023-02-25T10:43:30;9.50;99.90
42099;DHT22;27758;55.900;8.516;2023-02-25T10:48:28;9.80;99.10
42099;DHT22;27758;55.900;8.516;2023-02-25T10:51:10;9.70;99.40
42099;DHT22;27758;55.900;8.516;2023-02-25T10:53:57;9.60;99.80
42099;DHT22;27758;55.900;8.516;2023-02-25T10:56:29;9.90;99.20
42099;DHT22;27758;55.900;8.516;2023-02-25T10:59:05;10.00;98.90
42099;DHT22;27758;55.900;8.516;2023-02-25T11:01:37;10.20;99.40
42099;DHT22;27758;55.900;8.516;2023-02-25T11:04:08;10.20;98.80
42099;DHT22;27758;55.900;8.516;2023-02-25T11:06:36;10.10;99.00
42099;DHT22;27758;55.900;8.516;2023-02-25T11:09:26;10.00;98.90
42099;DHT22;27758;55.900;8.516;2023-02-25T11:12:14;9.90;99.80
42099;DHT22;27758;55.900;8.516;2023-02-25T11:14:40;9.10;99.90
42099;DHT22;27758;55.900;8.516;2023-02-25T11:20:00;7.60;99.90
42099;DHT22;27758;55.900;8.516;2023-02-25T11:22:37;7.30;99.90
42099;DHT22;27758;55.900;8.516;2023-02-25T11:25:23;7.10;99.90
42099;DHT22;27758;55.900;8.516;2023-02-25T11:27:56;7.10;99.90
42099;DHT22;27758;55.900;8.516;2023-02-25T11:30:35;8.10;99.90
42099;DHT22;27758;55.900;8.516;2023-02-25T11:33:04;9.00;99.90
42099;DHT22;27758;55.900;8.516;2023-02-25T11:35:36;9.90;99.90
42099;DHT22;27758;55.900;8.516;2023-02-25T11:38:32;10.20;99.90
42099;DHT22;27758;55.900;8.516;2023-02-25T11:40:58;10.80;99.90
42099;DHT22;27758;55.900;8.516;2023-02-25T11:43:38;10.60;98.90
42099;DHT22;27758;55.900;8.516;2023-02-25T11:49:01;10.50;98.20
42099;DHT22;27758;55.900;8.516;2023-02-25T11:51:50;9.90;97.30
42099;DHT22;27758;55.900;8.516;2023-02-25T11:54:25;9.30;98.70
42099;DHT22;27758;55.900;8.516;2023-02-25T11:56:56;8.70;98.20
42099;DHT22;27758;55.900;8.516;2023-02-25T11:59:37;8.70;99.00
42099;DHT22;27758;55.900;8.516;2023-02-25T12:11:32;10.40;98.10
42099;DHT22;27758;55.900;8.516;2023-02-25T12:25:59;9.50;96.80
42099;DHT22;27758;55.900;8.516;2023-02-25T12:34:24;7.70;99.50
42099;DHT22;27758;55.900;8.516;2023-02-25T12:42:19;7.40;99.90
42099;DHT22;27758;55.900;8.516;2023-02-25T12:44:51;8.30;99.90
42099;DHT22;27758;55.900;8.516;2023-02-25T12:50:07;9.20;98.60
42099;DHT22;27758;55.900;8.516;2023-02-25T13:01:50;9.30;97.20
42099;DHT22;27758;55.900;8.516;2023-02-25T13:04:41;8.10;98.70
42099;DHT22;27758;55.900;8.516;2023-02-25T13:12:25;5.30;99.90
42099;DHT22;27758;55.900;8.516;2023-02-25T13:15:11;5.10;99.90
42099;DHT22;27758;55.900;8.516;2023-02-25T13:18:02;5.10;99.90
42099;DHT22;27758;55.900;8.516;2023-02-25T13:24:10;6.70;99.90
42099;DHT22;27758;55.900;8.516;2023-02-25T13:35:24;10.00;99.90
42099;DHT22;27758;55.900;8.516;2023-02-25T13:42:07;10.40;99.80
42099;DHT22;27758;55.900;8.516;2023-02-25T13:47:08;10.00;99.30
42099;DHT22;27758;55.900;8.516;2023-02-25T13:50:02;9.20;98.10
42099;DHT22;27758;55.900;8.516;2023-02-25T14:00:53;8.80;99.10
42099;DHT22;27758;55.900;8.516;2023-02-25T14:03:47;9.10;97.90
42099;DHT22;27758;55.900;8.516;2023-02-25T14:11:57;8.90;97.50
42099;DHT22;27758;55.900;8.516;2023-02-25T14:17:35;7.30;97.90
42099;DHT22;27758;55.900;8.516;2023-02-25T14:44:15;7.00;99.20
42099;DHT22;27758;55.900;8.516;2023-02-25T14:46:58;6.90;98.80
42099;DHT22;27758;55.900;8.516;2023-02-25T14:49:36;6.80;97.80
42099;DHT22;27758;55.900;8.516;2023-02-25T14:55:06;6.90;98.40
42099;DHT22;27758;55.900;8.516;2023-02-25T15:14:47;6.20;99.90
42099;DHT22;27758;55.900;8.516;2023-02-25T15:35:59;6.40;98.50
42099;DHT22;27758;55.900;8.516;2023-02-25T15:38:44;6.00;99.20
42099;DHT22;27758;55.900;8.516;2023-02-25T15:54:07;5.00;98.70
42099;DHT22;27758;55.900;8.516;2023-02-25T15:56:50;4.80;99.20
42099;DHT22;27758;55.900;8.516;2023-02-25T15:59:48;4.70;99.60
42099;DHT22;27758;55.900;8.516;2023-02-25T16:10:08;4.50;99.90
42099;DHT22;27758;55.900;8.516;2023-02-25T16:12:44;4.50;99.90
42099;DHT22;27758;55.900;8.516;2023-02-25T16:15:34;4.40;99.90
42099;DHT22;27758;55.900;8.516;2023-02-25T16:18:09;4.40;99.60
42099;DHT22;27758;55.900;8.516;2023-02-25T16:20:46;4.20;99.90
42099;DHT22;27758;55.900;8.516;2023-02-25T16:23:14;4.10;99.90
42099;DHT22;27758;55.900;8.516;2023-02-25T16:31:30;3.80;99.90
42099;DHT22;27758;55.900;8.516;2023-02-25T16:34:04;3.70;99.90
42099;DHT22;27758;55.900;8.516;2023-02-25T16:36:38;3.70;99.90
42099;DHT22;27758;55.900;8.516;2023-02-25T16:41:41;3.50;99.90
42099;DHT22;27758;55.900;8.516;2023-02-25T16:44:07;3.40;99.90
42099;DHT22;27758;55.900;8.516;2023-02-25T16:46:35;3.40;99.90
42099;DHT22;27758;55.900;8.516;2023-02-25T16:49:10;3.40;99.90
42099;DHT22;27758;55.900;8.516;2023-02-25T16:51:42;3.30;99.90
42099;DHT22;27758;55.900;8.516;2023-02-25T16:54:16;3.30;99.90
42099;DHT22;27758;55.900;8.516;2023-02-25T16:56:44;3.30;99.90
42099;DHT22;27758;55.900;8.516;2023-02-25T16:59:17;3.20;99.90
42099;DHT22;27758;55.900;8.516;2023-02-25T17:02:41;3.20;99.90
42099;DHT22;27758;55.900;8.516;2023-02-25T17:04:48;3.20;99.90
42099;DHT22;27758;55.900;8.516;2023-02-25T17:07:18;3.00;99.90
42099;DHT22;27758;55.900;8.516;2023-02-25T17:14:54;2.90;99.90
42099;DHT22;27758;55.900;8.516;2023-02-25T17:17:31;2.90;99.90
42099;DHT22;27758;55.900;8.516;2023-02-25T17:19:59;2.90;99.90
42099;DHT22;27758;55.900;8.516;2023-02-25T17:22:25;2.80;99.90
42099;DHT22;27758;55.900;8.516;2023-02-25T17:24:53;2.80;99.90
42099;DHT22;27758;55.900;8.516;2023-02-25T17:27:21;2.80;99.90
42099;DHT22;27758;55.900;8.516;2023-02-25T17:29:48;2.70;99.90
42099;DHT22;27758;55.900;8.516;2023-02-25T17:32:23;2.60;99.90
42099;DHT22;27758;55.900;8.516;2023-02-25T17:34:56;2.60;99.90
42099;DHT22;27758;55.900;8.516;2023-02-25T17:37:26;2.50;99.90
42099;DHT22;27758;55.900;8.516;2023-02-25T17:39:53;2.50;99.90
42099;DHT22;27758;55.900;8.516;2023-02-25T17:42:33;2.50;99.90
42099;DHT22;27758;55.900;8.516;2023-02-25T17:44:59;2.40;99.90
42099;DHT22;27758;55.900;8.516;2023-02-25T17:47:28;2.50;99.90
42099;DHT22;27758;55.900;8.516;2023-02-25T17:49:56;2.40;99.90
42099;DHT22;27758;55.900;8.516;2023-02-25T17:52:29;2.40;99.90
42099;DHT22;27758;55.900;8.516;2023-02-25T17:55:00;2.30;99.90
42099;DHT22;27758;55.900;8.516;2023-02-25T17:57:28;2.40;99.90
42099;DHT22;27758;55.900;8.516;2023-02-25T18:00:08;2.40;99.90
42099;DHT22;27758;55.900;8.516;2023-02-25T18:02:41;2.40;99.90
42099;DHT22;27758;55.900;8.516;2023-02-25T18:12:47;2.30;99.90
42099;DHT22;27758;55.900;8.516;2023-02-25T18:15:17;2.30;99.90
42099;DHT22;27758;55.900;8.516;2023-02-25T18:17:52;2.20;99.90
42099;DHT22;27758;55.900;8.516;2023-02-25T18:20:32;2.20;99.90
42099;DHT22;27758;55.900;8.516;2023-02-25T18:23:01;2.20;99.90
42099;DHT22;27758;55.900;8.516;2023-02-25T18:27:56;2.10;99.90
42099;DHT22;27758;55.900;8.516;2023-02-25T18:30:25;2.10;99.90
42099;DHT22;27758;55.900;8.516;2023-02-25T18:32:51;2.00;99.90
42099;DHT22;27758;55.900;8.516;2023-02-25T18:35:18;1.90;99.90
42099;DHT22;27758;55.900;8.516;2023-02-25T18:37:46;2.00;99.90
42099;DHT22;27758;55.900;8.516;2023-02-25T18:42:50;2.00;99.90
42099;DHT22;27758;55.900;8.516;2023-02-25T18:45:21;2.00;99.90
42099;DHT22;27758;55.900;8.516;2023-02-25T18:47:47;1.90;99.90
42099;DHT22;27758;55.900;8.516;2023-02-25T18:50:13;1.90;99.90
42099;DHT22;27758;55.900;8.516;2023-02-25T18:52:40;1.90;99.90
42099;DHT22;27758;55.900;8.516;2023-02-25T18:55:07;1.90;99.90
42099;DHT22;27758;55.900;8.516;2023-02-25T18:57:33;1.80;99.90
42099;DHT22;27758;55.900;8.516;2023-02-25T18:59:59;1.80;99.90
42099;DHT22;27758;55.900;8.516;2023-02-25T19:02:28;1.80;99.90
42099;DHT22;27758;55.900;8.516;2023-02-25T19:04:54;1.70;99.90
42099;DHT22;27758;55.900;8.516;2023-02-25T19:07:23;1.70;99.90
42099;DHT22;27758;55.900;8.516;2023-02-25T19:09:49;1.70;99.90
42099;DHT22;27758;55.900;8.516;2023-02-25T19:12:16;1.60;99.90
42099;DHT22;27758;55.900;8.516;2023-02-25T19:14:43;1.60;99.90
42099;DHT22;27758;55.900;8.516;2023-02-25T19:17:13;1.60;99.90
42099;DHT22;27758;55.900;8.516;2023-02-25T19:19:41;1.60;99.90
42099;DHT22;27758;55.900;8.516;2023-02-25T19:22:12;1.50;99.90
42099;DHT22;27758;55.900;8.516;2023-02-25T19:24:39;1.50;99.90
42099;DHT22;27758;55.900;8.516;2023-02-25T19:27:05;1.50;99.90
42099;DHT22;27758;55.900;8.516;2023-02-25T19:29:31;1.40;99.90
42099;DHT22;27758;55.900;8.516;2023-02-25T19:31:57;1.40;99.90
42099;DHT22;27758;55.900;8.516;2023-02-25T19:34:23;1.40;99.90
42099;DHT22;27758;55.900;8.516;2023-02-25T19:36:49;1.50;99.90
42099;DHT22;27758;55.900;8.516;2023-02-25T19:39:17;1.40;99.90
42099;DHT22;27758;55.900;8.516;2023-02-25T19:41:43;1.40;99.90
42099;DHT22;27758;55.900;8.516;2023-02-25T19:44:09;1.50;99.90
42099;DHT22;27758;55.900;8.516;2023-02-25T19:46:34;1.40;99.90
42099;DHT22;27758;55.900;8.516;2023-02-25T19:49:00;1.40;99.90
42099;DHT22;27758;55.900;8.516;2023-02-25T19:51:26;1.40;99.90
42099;DHT22;27758;55.900;8.516;2023-02-25T19:53:51;1.30;99.90
42099;DHT22;27758;55.900;8.516;2023-02-25T19:56:17;1.30;99.90
42099;DHT22;27758;55.900;8.516;2023-02-25T19:58:43;1.30;99.90
42099;DHT22;27758;55.900;8.516;2023-02-25T20:01:08;1.30;99.90
42099;DHT22;27758;55.900;8.516;2023-02-25T20:03:34;1.30;99.90
42099;DHT22;27758;55.900;8.516;2023-02-25T20:06:05;1.30;99.90
42099;DHT22;27758;55.900;8.516;2023-02-25T20:08:32;1.20;99.90
42099;DHT22;27758;55.900;8.516;2023-02-25T20:10:59;1.10;99.90